createdAt,value
2023-11-17T00:00:13.099Z,15.60
2023-11-17T00:02:43.344Z,15.60
2023-11-17T00:05:12.109Z,15.60
2023-11-17T00:07:40.272Z,15.60
2023-11-17T00:10:10.131Z,15.50
2023-11-17T00:12:38.020Z,15.50
2023-11-17T00:15:07.877Z,15.50
2023-11-17T00:17:35.762Z,15.50
2023-11-17T00:20:06.998Z,15.40
2023-11-17T00:22:34.879Z,15.40
2023-11-17T00:25:03.175Z,15.50
2023-11-17T00:27:31.126Z,15.40
2023-11-17T00:29:58.965Z,15.50
2023-11-17T00:32:27.464Z,15.40
2023-11-17T00:34:55.355Z,15.40
2023-11-17T00:37:26.180Z,15.40
2023-11-17T00:39:54.075Z,15.40
2023-11-17T00:42:22.008Z,15.40
2023-11-17T00:44:49.805Z,15.40
2023-11-17T00:47:18.344Z,15.30
2023-11-17T00:49:46.234Z,15.40
2023-11-17T00:52:14.060Z,15.40
2023-11-17T00:54:44.665Z,15.40
2023-11-17T00:57:13.150Z,15.40
2023-11-17T00:59:41.136Z,15.40
2023-11-17T01:02:09.344Z,15.30
2023-11-17T01:04:37.233Z,15.30
2023-11-17T01:07:05.053Z,15.30
2023-11-17T01:09:33.443Z,15.30
2023-11-17T01:12:02.773Z,15.30
2023-11-17T01:14:30.652Z,15.20
2023-11-17T01:16:58.446Z,15.30
2023-11-17T01:19:26.844Z,15.20
2023-11-17T01:21:54.864Z,15.20
2023-11-17T01:24:22.832Z,15.20
2023-11-17T01:26:50.862Z,15.20
2023-11-17T01:29:20.221Z,15.20
2023-11-17T01:31:48.386Z,15.10
2023-11-17T01:34:17.501Z,15.10
2023-11-17T01:36:45.669Z,15.10
2023-11-17T01:39:14.355Z,15.20
2023-11-17T01:41:43.383Z,15.20
2023-11-17T01:44:11.389Z,15.20
2023-11-17T01:46:40.800Z,15.10
2023-11-17T01:49:13.693Z,15.10
2023-11-17T01:51:41.951Z,15.10
2023-11-17T01:54:10.770Z,15.10
2023-11-17T01:56:39.508Z,15.10
2023-11-17T01:59:07.537Z,15.10
2023-11-17T02:01:36.040Z,15.10
2023-11-17T02:04:05.935Z,15.10
2023-11-17T02:06:42.301Z,15.10
2023-11-17T02:09:22.871Z,15.10
2023-11-17T02:12:00.700Z,15.10
2023-11-17T02:14:37.080Z,15.00
2023-11-17T02:17:10.048Z,15.00
2023-11-17T02:19:43.963Z,15.00
2023-11-17T02:22:17.223Z,15.00
2023-11-17T02:25:02.760Z,15.00
2023-11-17T02:27:38.933Z,14.90
2023-11-17T02:30:09.766Z,14.90
2023-11-17T02:32:39.632Z,14.90
2023-11-17T02:35:09.438Z,14.90
2023-11-17T02:37:39.768Z,14.90
2023-11-17T02:40:19.708Z,14.90
2023-11-17T02:42:49.126Z,14.90
2023-11-17T02:45:21.975Z,14.90
2023-11-17T02:47:53.508Z,14.80
2023-11-17T02:50:32.274Z,14.90
2023-11-17T02:53:11.838Z,14.90
2023-11-17T02:55:41.840Z,14.80
2023-11-17T02:58:10.839Z,14.80
2023-11-17T03:00:40.668Z,14.80
2023-11-17T03:03:08.617Z,14.80
2023-11-17T03:05:37.479Z,14.80
2023-11-17T03:08:05.755Z,14.80
2023-11-17T03:10:35.567Z,14.80
2023-11-17T03:13:03.432Z,14.80
2023-11-17T03:15:31.241Z,14.80
2023-11-17T03:18:00.567Z,14.80
2023-11-17T03:20:28.868Z,14.80
2023-11-17T03:23:01.457Z,14.80
2023-11-17T03:25:30.195Z,14.70
2023-11-17T03:27:58.028Z,14.80
2023-11-17T03:30:25.852Z,14.70
2023-11-17T03:32:55.938Z,14.70
2023-11-17T03:35:25.448Z,14.70
2023-11-17T03:37:53.215Z,14.70
2023-11-17T03:40:21.346Z,14.70
2023-11-17T03:42:49.523Z,14.60
2023-11-17T03:45:17.404Z,14.70
2023-11-17T03:47:46.806Z,14.70
2023-11-17T03:50:15.542Z,14.70
2023-11-17T03:52:44.912Z,14.70
2023-11-17T03:55:14.149Z,14.70
2023-11-17T03:57:41.939Z,14.70
2023-11-17T04:00:11.245Z,14.60
2023-11-17T04:02:39.052Z,14.60
2023-11-17T04:05:14.369Z,14.70
2023-11-17T04:07:43.881Z,14.60
2023-11-17T04:10:13.197Z,14.60
2023-11-17T04:12:41.213Z,14.70
2023-11-17T04:15:13.032Z,14.60
2023-11-17T04:17:42.361Z,14.60
2023-11-17T04:20:15.251Z,14.60
2023-11-17T04:22:45.022Z,14.60
2023-11-17T04:25:14.323Z,14.70
2023-11-17T04:27:43.168Z,14.60
2023-11-17T04:30:12.521Z,14.60
2023-11-17T04:32:40.753Z,14.60
2023-11-17T04:35:09.804Z,14.60
2023-11-17T04:37:39.472Z,14.50
2023-11-17T04:40:11.537Z,14.60
2023-11-17T04:42:41.041Z,14.50
2023-11-17T04:45:10.014Z,14.50
2023-11-17T04:47:37.998Z,14.60
2023-11-17T04:50:10.375Z,14.70
2023-11-17T04:52:38.384Z,15.00
2023-11-17T04:55:07.935Z,15.10
2023-11-17T04:57:38.184Z,15.00
2023-11-17T05:00:14.550Z,15.10
2023-11-17T05:02:43.764Z,15.00
2023-11-17T05:05:12.944Z,15.10
2023-11-17T05:07:41.164Z,15.10
2023-11-17T05:10:10.231Z,15.00
2023-11-17T05:12:38.173Z,15.00
2023-11-17T05:15:08.920Z,14.90
2023-11-17T05:17:44.732Z,15.00
2023-11-17T05:20:15.175Z,15.00
2023-11-17T05:22:43.486Z,14.90
2023-11-17T05:25:12.919Z,15.00
2023-11-17T05:27:42.221Z,15.00
2023-11-17T05:30:13.717Z,15.00
2023-11-17T05:32:42.250Z,15.00
2023-11-17T05:35:11.774Z,15.00
2023-11-17T05:37:40.025Z,15.10
2023-11-17T05:40:09.430Z,15.10
2023-11-17T05:42:38.122Z,15.00
2023-11-17T05:45:07.965Z,15.10
2023-11-17T05:47:37.144Z,15.10
2023-11-17T05:50:05.458Z,15.10
2023-11-17T05:52:33.605Z,15.10
2023-11-17T05:55:04.983Z,15.20
2023-11-17T05:57:32.953Z,15.20
2023-11-17T06:00:03.272Z,15.20
2023-11-17T06:02:31.119Z,15.30
2023-11-17T06:05:00.311Z,15.30
2023-11-17T06:07:28.314Z,15.30
2023-11-17T06:09:58.551Z,15.30
2023-11-17T06:12:28.035Z,15.30
2023-11-17T06:14:55.810Z,15.30
2023-11-17T06:17:23.729Z,15.40
2023-11-17T06:19:52.174Z,15.30
2023-11-17T06:22:22.686Z,15.30
2023-11-17T06:24:50.524Z,15.30
2023-11-17T06:27:18.289Z,15.30
2023-11-17T06:29:46.080Z,15.50
2023-11-17T06:32:14.294Z,15.60
2023-11-17T06:34:41.141Z,15.80
2023-11-17T06:37:10.329Z,15.80
2023-11-17T06:39:40.371Z,16.00
2023-11-17T06:42:08.925Z,16.30
2023-11-17T06:44:37.166Z,16.40
2023-11-17T06:47:07.615Z,16.60
2023-11-17T06:49:35.575Z,16.50
2023-11-17T06:52:07.388Z,16.30
2023-11-17T06:54:35.272Z,16.20
2023-11-17T06:57:04.607Z,16.10
2023-11-17T06:59:32.411Z,16.10
2023-11-17T07:02:04.580Z,16.00
2023-11-17T07:04:33.377Z,16.10
2023-11-17T07:07:01.821Z,16.10
2023-11-17T07:09:33.268Z,16.10
2023-11-17T07:12:02.909Z,16.00
2023-11-17T07:14:32.753Z,16.00
2023-11-17T07:17:00.581Z,16.10
2023-11-17T07:19:28.429Z,16.00
2023-11-17T07:21:57.298Z,16.10
2023-11-17T07:24:25.203Z,16.10
2023-11-17T07:26:55.316Z,16.10
2023-11-17T07:29:25.021Z,16.10
2023-11-17T07:31:55.474Z,16.10
2023-11-17T07:34:26.020Z,16.10
2023-11-17T07:36:55.546Z,16.20
2023-11-17T07:39:25.061Z,16.20
2023-11-17T07:41:53.987Z,16.10
2023-11-17T07:44:21.975Z,16.10
2023-11-17T07:46:50.163Z,16.10
2023-11-17T07:49:21.405Z,16.10
2023-11-17T07:51:49.955Z,16.20
2023-11-17T07:54:19.201Z,16.30
2023-11-17T07:56:47.841Z,16.30
2023-11-17T07:59:15.753Z,16.40
2023-11-17T08:01:45.134Z,16.50
2023-11-17T08:04:13.422Z,16.60
2023-11-17T08:06:42.735Z,16.60
2023-11-17T08:09:12.066Z,16.60
2023-11-17T08:11:40.030Z,16.70
2023-11-17T08:14:09.515Z,16.80
2023-11-17T08:16:38.000Z,16.90
2023-11-17T08:19:18.419Z,17.00
2023-11-17T08:21:55.207Z,17.20
2023-11-17T08:24:24.055Z,17.20
2023-11-17T08:26:53.448Z,17.20
2023-11-17T08:29:23.475Z,17.30
2023-11-17T08:31:52.839Z,17.30
2023-11-17T08:34:23.881Z,17.30
2023-11-17T08:36:52.625Z,17.50
2023-11-17T08:39:28.745Z,17.90
2023-11-17T08:41:57.966Z,18.20
2023-11-17T08:44:26.879Z,18.40
2023-11-17T08:46:55.033Z,18.50
2023-11-17T08:49:25.401Z,18.50
2023-11-17T08:51:53.325Z,18.60
2023-11-17T08:54:23.277Z,18.60
2023-11-17T08:56:51.400Z,18.70
2023-11-17T08:59:21.102Z,18.70
2023-11-17T09:01:50.050Z,18.90
2023-11-17T09:04:18.466Z,18.90
2023-11-17T09:06:46.455Z,19.00
2023-11-17T09:11:48.641Z,19.30
2023-11-17T09:14:16.497Z,19.30
2023-11-17T09:16:49.739Z,19.40
2023-11-17T09:19:20.622Z,19.50
2023-11-17T09:21:48.540Z,19.50
2023-11-17T09:24:16.823Z,19.80
2023-11-17T09:26:46.037Z,20.20
2023-11-17T09:29:13.811Z,20.70
2023-11-17T09:31:42.592Z,21.10
2023-11-17T09:34:11.402Z,21.20
2023-11-17T09:36:41.744Z,21.30
2023-11-17T09:39:11.382Z,21.20
2023-11-17T09:41:40.656Z,21.20
2023-11-17T09:44:12.168Z,21.20
2023-11-17T09:46:46.379Z,21.30
2023-11-17T09:49:16.376Z,21.40
2023-11-17T09:51:44.861Z,21.40
2023-11-17T09:54:14.878Z,21.50
2023-11-17T09:56:44.832Z,21.60
2023-11-17T09:59:14.032Z,21.90
2023-11-17T10:01:43.670Z,22.40
2023-11-17T10:04:13.405Z,22.80
2023-11-17T10:06:43.531Z,22.90
2023-11-17T10:09:14.840Z,22.80
2023-11-17T10:11:47.986Z,22.90
2023-11-17T10:14:19.034Z,22.90
2023-11-17T10:16:51.332Z,23.10
2023-11-17T10:19:20.379Z,23.20
2023-11-17T10:21:51.483Z,23.50
2023-11-17T10:24:22.349Z,23.80
2023-11-17T10:26:51.444Z,24.00
2023-11-17T10:29:22.154Z,24.00
2023-11-17T10:31:52.090Z,24.50
2023-11-17T10:34:22.760Z,24.80
2023-11-17T10:36:57.591Z,24.90
2023-11-17T10:39:26.492Z,25.10
2023-11-17T10:41:55.010Z,25.30
2023-11-17T10:44:34.107Z,25.60
2023-11-17T10:47:06.128Z,26.10
2023-11-17T10:49:34.425Z,26.40
2023-11-17T10:52:06.701Z,26.60
2023-11-17T10:54:35.128Z,26.90
2023-11-17T10:57:11.707Z,27.10
2023-11-17T10:59:52.731Z,27.60
2023-11-17T11:02:29.549Z,27.90
2023-11-17T11:05:04.034Z,28.20
2023-11-17T11:07:44.325Z,28.40
2023-11-17T11:10:16.270Z,28.50
2023-11-17T11:12:47.232Z,28.20
2023-11-17T11:15:21.018Z,27.50
2023-11-17T11:17:56.729Z,27.10
2023-11-17T11:20:25.246Z,27.20
2023-11-17T11:22:54.436Z,27.30
2023-11-17T11:25:23.882Z,27.60
2023-11-17T11:27:53.189Z,27.80
2023-11-17T11:30:23.737Z,27.90
2023-11-17T11:32:53.086Z,27.90
2023-11-17T11:35:20.944Z,28.10
2023-11-17T11:37:48.753Z,28.10
2023-11-17T11:40:17.924Z,28.30
2023-11-17T11:42:47.045Z,28.80
2023-11-17T11:45:18.289Z,29.00
2023-11-17T11:47:50.892Z,28.40
2023-11-17T11:50:23.201Z,28.60
2023-11-17T11:53:17.339Z,28.60
2023-11-17T11:55:46.097Z,28.90
2023-11-17T11:58:13.997Z,29.10
2023-11-17T12:00:46.634Z,29.30
2023-11-17T12:03:16.139Z,29.20
2023-11-17T12:05:45.698Z,29.10
2023-11-17T12:08:25.471Z,28.90
2023-11-17T12:10:57.913Z,28.30
2023-11-17T12:13:44.637Z,27.80
2023-11-17T12:16:15.238Z,28.20
2023-11-17T12:18:49.857Z,28.50
2023-11-17T12:21:19.562Z,28.40
2023-11-17T12:23:49.591Z,28.60
2023-11-17T12:26:19.451Z,28.60
2023-11-17T12:28:47.832Z,28.70
2023-11-17T12:31:16.680Z,28.80
2023-11-17T12:33:45.501Z,28.80
2023-11-17T12:36:17.405Z,28.70
2023-11-17T12:38:46.225Z,28.60
2023-11-17T12:41:14.853Z,28.60
2023-11-17T12:43:48.814Z,28.60
2023-11-17T12:46:17.012Z,28.70
2023-11-17T12:48:45.755Z,28.80
2023-11-17T12:51:25.677Z,29.00
2023-11-17T12:53:54.417Z,29.40
2023-11-17T12:56:23.606Z,30.80
2023-11-17T12:58:52.155Z,31.70
2023-11-17T13:01:20.994Z,32.10
2023-11-17T13:03:50.600Z,32.60
2023-11-17T13:06:24.986Z,32.50
2023-11-17T13:08:53.840Z,32.10
2023-11-17T13:11:27.141Z,32.00
2023-11-17T13:13:56.623Z,30.50
2023-11-17T13:16:30.029Z,29.00
2023-11-17T13:19:00.090Z,28.20
2023-11-17T13:21:32.219Z,28.00
2023-11-17T13:24:00.586Z,28.20
2023-11-17T13:26:29.518Z,28.30
2023-11-17T13:28:58.078Z,28.50
2023-11-17T13:31:28.714Z,28.60
2023-11-17T13:33:58.391Z,28.70
2023-11-17T13:36:33.283Z,28.70
2023-11-17T13:39:12.530Z,28.40
2023-11-17T13:41:41.042Z,28.50
2023-11-17T13:44:20.948Z,28.80
2023-11-17T13:46:56.566Z,29.20
2023-11-17T13:49:25.643Z,29.80
2023-11-17T13:51:58.503Z,31.10
2023-11-17T13:54:28.850Z,32.10
2023-11-17T13:56:56.972Z,32.80
2023-11-17T13:59:26.419Z,33.20
2023-11-17T14:01:57.630Z,33.30
2023-11-17T14:04:28.365Z,33.40
2023-11-17T14:06:57.627Z,33.40
2023-11-17T14:09:25.752Z,33.10
2023-11-17T14:11:54.557Z,32.30
2023-11-17T14:14:23.221Z,31.00
2023-11-17T14:16:51.222Z,29.30
2023-11-17T14:19:20.254Z,28.00
2023-11-17T14:21:48.973Z,27.30
2023-11-17T14:24:19.486Z,26.80
2023-11-17T14:26:47.670Z,26.60
2023-11-17T14:29:15.673Z,26.30
2023-11-17T14:31:44.872Z,26.20
2023-11-17T14:34:22.305Z,25.90
2023-11-17T14:36:51.142Z,25.70
2023-11-17T14:39:24.981Z,25.50
2023-11-17T14:41:54.685Z,25.30
2023-11-17T14:44:22.702Z,25.10
2023-11-17T14:46:50.852Z,25.00
2023-11-17T14:49:19.076Z,24.80
2023-11-17T14:51:47.324Z,24.70
2023-11-17T14:54:16.572Z,24.50
2023-11-17T14:56:46.733Z,24.50
2023-11-17T14:59:14.801Z,24.20
2023-11-17T15:01:44.047Z,24.10
2023-11-17T15:04:15.302Z,24.00
2023-11-17T15:06:43.216Z,23.90
2023-11-17T15:09:11.000Z,23.80
2023-11-17T15:11:39.026Z,23.70
2023-11-17T15:14:09.263Z,23.60
2023-11-17T15:16:38.762Z,23.40
2023-11-17T15:19:07.069Z,23.10
2023-11-17T15:21:38.619Z,22.60
2023-11-17T15:24:09.356Z,22.20
2023-11-17T15:26:37.798Z,21.80
2023-11-17T15:29:06.622Z,21.50
2023-11-17T15:31:36.212Z,21.30
2023-11-17T15:34:11.997Z,21.50
2023-11-17T15:36:41.655Z,21.70
2023-11-17T15:39:15.473Z,21.80
2023-11-17T15:41:44.776Z,21.80
2023-11-17T15:44:17.595Z,21.80
2023-11-17T15:46:47.481Z,21.70
2023-11-17T15:49:16.820Z,21.60
2023-11-17T15:51:46.065Z,21.60
2023-11-17T15:54:16.045Z,21.50
2023-11-17T15:56:47.191Z,21.50
2023-11-17T15:59:15.113Z,21.50
2023-11-17T16:01:44.963Z,21.50
2023-11-17T16:04:17.007Z,21.40
2023-11-17T16:06:47.569Z,21.40
2023-11-17T16:09:16.229Z,21.30
2023-11-17T16:11:44.028Z,21.30
2023-11-17T16:14:13.835Z,21.20
2023-11-17T16:16:42.746Z,21.20
2023-11-17T16:19:11.095Z,21.20
2023-11-17T16:21:40.520Z,21.20
2023-11-17T16:24:10.795Z,21.20
2023-11-17T16:26:38.640Z,21.10
2023-11-17T16:29:07.263Z,21.10
2023-11-17T16:31:38.730Z,21.00
2023-11-17T16:34:06.832Z,20.60
2023-11-17T16:36:46.109Z,20.30
2023-11-17T16:39:19.460Z,20.30
2023-11-17T16:41:48.647Z,20.40
2023-11-17T16:44:17.041Z,20.40
2023-11-17T16:46:52.275Z,20.40
2023-11-17T16:49:20.753Z,20.40
2023-11-17T16:51:48.923Z,20.40
2023-11-17T16:54:18.672Z,20.40
2023-11-17T16:56:46.798Z,20.50
2023-11-17T16:59:15.424Z,20.50
2023-11-17T17:01:44.070Z,20.50
2023-11-17T17:04:12.250Z,20.50
2023-11-17T17:06:43.014Z,20.40
2023-11-17T17:09:14.822Z,20.40
2023-11-17T17:11:46.084Z,20.30
2023-11-17T17:14:20.247Z,20.30
2023-11-17T17:16:52.695Z,20.30
2023-11-17T17:19:23.194Z,20.20
2023-11-17T17:21:53.092Z,20.20
2023-11-17T17:24:21.218Z,20.20
2023-11-17T17:26:51.620Z,20.20
2023-11-17T17:29:19.546Z,20.10
2023-11-17T17:31:50.128Z,20.10
2023-11-17T17:34:20.438Z,20.10
2023-11-17T17:36:48.536Z,20.10
2023-11-17T17:39:20.060Z,20.10
2023-11-17T17:41:48.794Z,20.10
2023-11-17T17:44:22.517Z,20.20
2023-11-17T17:46:52.692Z,20.10
2023-11-17T17:49:20.801Z,20.10
2023-11-17T17:51:48.636Z,20.10
2023-11-17T17:54:17.764Z,20.10
2023-11-17T17:56:45.618Z,20.10
2023-11-17T17:59:15.172Z,20.10
2023-11-17T18:01:45.287Z,20.20
2023-11-17T18:04:14.491Z,20.10
2023-11-17T18:06:43.398Z,20.10
2023-11-17T18:09:13.726Z,20.30
2023-11-17T18:11:41.708Z,20.30
2023-11-17T18:14:11.157Z,20.40
2023-11-17T18:16:39.050Z,20.50
2023-11-17T18:19:08.484Z,20.60
2023-11-17T18:21:36.300Z,20.60
2023-11-17T18:24:04.140Z,20.50
2023-11-17T18:26:38.545Z,20.50
2023-11-17T18:29:13.280Z,20.50
2023-11-17T18:31:41.139Z,20.30
2023-11-17T18:34:10.337Z,20.30
2023-11-17T18:36:38.209Z,20.30
2023-11-17T18:39:12.129Z,20.40
2023-11-17T18:41:40.866Z,20.30
2023-11-17T18:44:09.324Z,20.20
2023-11-17T18:46:37.322Z,20.20
2023-11-17T18:49:06.531Z,20.10
2023-11-17T18:51:36.246Z,20.00
2023-11-17T18:54:04.092Z,20.00
2023-11-17T18:56:32.663Z,20.00
2023-11-17T18:59:00.533Z,19.90
2023-11-17T19:01:28.502Z,19.90
2023-11-17T19:03:56.680Z,19.90
2023-11-17T19:06:24.579Z,19.80
2023-11-17T19:08:56.131Z,19.70
2023-11-17T19:11:25.464Z,19.70
2023-11-17T19:13:53.414Z,19.60
2023-11-17T19:16:22.716Z,19.60
2023-11-17T19:18:50.667Z,19.60
2023-11-17T19:21:19.239Z,19.60
2023-11-17T19:23:46.995Z,19.60
2023-11-17T19:26:17.424Z,19.60
2023-11-17T19:28:45.464Z,19.50
2023-11-17T19:31:14.826Z,19.50
2023-11-17T19:33:42.705Z,19.50
2023-11-17T19:36:11.867Z,19.50
2023-11-17T19:38:39.716Z,19.50
2023-11-17T19:41:07.705Z,19.50
2023-11-17T19:43:39.052Z,19.40
2023-11-17T19:46:09.324Z,19.60
2023-11-17T19:48:37.119Z,19.80
2023-11-17T19:51:07.021Z,19.90
2023-11-17T19:53:34.883Z,20.10
2023-11-17T19:56:05.187Z,20.10
2023-11-17T19:58:33.447Z,20.20
2023-11-17T20:01:04.495Z,20.20
2023-11-17T20:03:32.625Z,20.20
2023-11-17T20:06:00.523Z,20.20
2023-11-17T20:08:28.331Z,20.20
2023-11-17T20:10:56.289Z,20.10
2023-11-17T20:13:25.966Z,19.90
2023-11-17T20:15:53.793Z,19.80
2023-11-17T20:18:27.812Z,19.70
2023-11-17T20:20:56.383Z,19.60
2023-11-17T20:23:24.143Z,19.70
2023-11-17T20:25:51.994Z,19.60
2023-11-17T20:28:21.229Z,19.60
2023-11-17T20:30:49.678Z,19.60
2023-11-17T20:33:21.442Z,19.50
2023-11-17T20:35:50.900Z,19.50
2023-11-17T20:38:18.796Z,19.60
2023-11-17T20:40:46.659Z,19.60
2023-11-17T20:43:14.835Z,19.50
2023-11-17T20:45:44.389Z,19.50
2023-11-17T20:48:12.280Z,19.40
2023-11-17T20:50:41.435Z,19.40
2023-11-17T20:53:12.097Z,19.40
2023-11-17T20:55:41.180Z,19.30
2023-11-17T20:58:11.663Z,19.40
2023-11-17T21:00:43.005Z,19.40
2023-11-17T21:03:11.734Z,19.60
2023-11-17T21:05:41.148Z,19.70
2023-11-17T21:08:12.091Z,19.80
2023-11-17T21:10:42.387Z,19.80
2023-11-17T21:13:10.252Z,19.80
2023-11-17T21:15:38.061Z,19.80
2023-11-17T21:18:08.856Z,19.90
2023-11-17T21:20:37.169Z,19.90
2023-11-17T21:23:05.517Z,19.90
2023-11-17T21:28:48.281Z,20.00
2023-11-17T21:31:16.270Z,20.40
2023-11-17T21:36:06.947Z,16.50
2023-11-17T21:38:35.617Z,14.70
2023-11-17T21:41:04.505Z,14.40
2023-11-17T21:43:34.745Z,14.50
2023-11-17T21:46:03.456Z,13.70
2023-11-17T21:48:31.739Z,12.30
2023-11-17T21:50:59.634Z,11.20
2023-11-17T21:53:28.908Z,10.80
2023-11-17T21:58:39.438Z,10.50
2023-11-17T22:01:08.524Z,14.80
2023-11-17T22:05:02.058Z,17.80
2023-11-17T22:07:29.862Z,18.10
2023-11-17T22:09:57.721Z,18.20
2023-11-17T22:12:25.587Z,18.30
2023-11-17T22:14:53.427Z,18.30
2023-11-17T22:17:21.636Z,18.30
2023-11-17T22:19:49.655Z,18.30
2023-11-17T22:22:19.033Z,18.30
2023-11-17T22:24:47.157Z,18.20
2023-11-17T22:27:15.125Z,18.30
2023-11-17T22:29:42.968Z,18.30
2023-11-17T22:32:11.089Z,18.20
2023-11-17T22:34:38.981Z,18.20
2023-11-17T22:37:07.548Z,18.10
2023-11-17T22:39:37.009Z,18.10
2023-11-17T22:42:05.589Z,18.00
2023-11-17T22:44:33.449Z,18.00
2023-11-17T22:47:01.360Z,18.00
2023-11-17T22:49:29.498Z,18.00
2023-11-17T22:51:57.498Z,18.00
2023-11-17T22:54:25.595Z,17.90
2023-11-17T22:56:54.796Z,17.90
2023-11-17T22:59:22.593Z,17.90
2023-11-17T23:01:50.488Z,17.90
2023-11-17T23:04:18.741Z,17.80
2023-11-17T23:06:46.595Z,17.70
2023-11-17T23:09:16.520Z,17.70
2023-11-17T23:11:44.947Z,17.70
2023-11-17T23:14:14.855Z,17.70
2023-11-17T23:16:42.701Z,17.60
2023-11-17T23:19:17.954Z,17.60
2023-11-17T23:21:48.807Z,17.60
2023-11-17T23:24:16.830Z,17.60
2023-11-17T23:26:46.535Z,17.60
2023-11-17T23:29:15.735Z,17.60
2023-11-17T23:31:43.937Z,17.70
2023-11-17T23:34:13.655Z,17.60
2023-11-17T23:36:41.723Z,17.60
2023-11-17T23:39:13.386Z,17.70
2023-11-17T23:41:43.311Z,17.70
2023-11-17T23:44:11.027Z,17.70
2023-11-17T23:46:40.517Z,17.60
2023-11-17T23:49:08.468Z,17.60
2023-11-17T23:51:37.091Z,17.60
2023-11-17T23:54:05.507Z,17.60
2023-11-17T23:56:33.693Z,17.60
2023-11-17T23:59:01.660Z,17.60
